sensor_id;sensor_type;location;lat;lon;timestamp;pressure;altitude;pressure_sealevel;temperature;humidity
32761;BME280;19126;47.472;7.850;2023-07-29T00:00:17;96272.28;;;15.90;35.86
32761;BME280;19126;47.472;7.850;2023-07-29T00:02:45;96263.31;;;15.91;35.61
32761;BME280;19126;47.472;7.850;2023-07-29T00:05:13;96266.72;;;15.99;36.06
32761;BME280;19126;47.472;7.850;2023-07-29T00:07:41;96265.16;;;15.91;35.93
32761;BME280;19126;47.472;7.850;2023-07-29T00:10:09;96264.75;;;15.87;35.28
32761;BME280;19126;47.472;7.850;2023-07-29T00:12:36;96263.34;;;15.85;34.35
32761;BME280;19126;47.472;7.850;2023-07-29T00:15:05;96265.59;;;15.81;33.34
32761;BME280;19126;47.472;7.850;2023-07-29T00:17:32;96257.88;;;15.79;32.37
32761;BME280;19126;47.472;7.850;2023-07-29T00:20:00;96248.31;;;15.78;31.17
32761;BME280;19126;47.472;7.850;2023-07-29T00:22:27;96254.41;;;15.79;30.35
32761;BME280;19126;47.472;7.850;2023-07-29T00:24:56;96252.00;;;15.77;29.22
32761;BME280;19126;47.472;7.850;2023-07-29T00:27:25;96248.31;;;15.78;28.68
32761;BME280;19126;47.472;7.850;2023-07-29T00:29:52;96249.53;;;15.76;28.86
32761;BME280;19126;47.472;7.850;2023-07-29T00:32:20;96247.13;;;15.74;28.74
32761;BME280;19126;47.472;7.850;2023-07-29T00:34:47;96237.31;;;15.75;28.06
32761;BME280;19126;47.472;7.850;2023-07-29T00:37:14;96243.22;;;15.77;27.33
32761;BME280;19126;47.472;7.850;2023-07-29T00:39:41;96243.22;;;15.77;27.22
32761;BME280;19126;47.472;7.850;2023-07-29T00:42:10;96244.41;;;15.81;26.44
32761;BME280;19126;47.472;7.850;2023-07-29T00:44:37;96238.50;;;15.79;26.11
32761;BME280;19126;47.472;7.850;2023-07-29T00:47:06;96238.75;;;15.77;26.47
32761;BME280;19126;47.472;7.850;2023-07-29T00:49:34;96236.88;;;15.78;25.25
32761;BME280;19126;47.472;7.850;2023-07-29T00:52:02;96233.44;;;15.77;25.68
32761;BME280;19126;47.472;7.850;2023-07-29T00:54:29;96235.28;;;15.77;24.76
32761;BME280;19126;47.472;7.850;2023-07-29T00:56:57;96233.81;;;15.81;24.47
32761;BME280;19126;47.472;7.850;2023-07-29T00:59:26;96241.16;;;15.79;24.40
32761;BME280;19126;47.472;7.850;2023-07-29T01:01:56;96243.59;;;15.80;24.79
32761;BME280;19126;47.472;7.850;2023-07-29T01:04:23;96241.16;;;15.79;23.73
32761;BME280;19126;47.472;7.850;2023-07-29T01:06:58;96243.38;;;15.82;22.89
32761;BME280;19126;47.472;7.850;2023-07-29T01:09:38;96242.34;;;15.83;23.28
32761;BME280;19126;47.472;7.850;2023-07-29T01:12:14;96244.38;;;15.88;22.45
32761;BME280;19126;47.472;7.850;2023-07-29T01:14:51;96227.28;;;15.90;21.79
32761;BME280;19126;47.472;7.850;2023-07-29T01:17:25;96229.09;;;15.90;21.38
32761;BME280;19126;47.472;7.850;2023-07-29T01:20:01;96227.47;;;15.89;20.88
32761;BME280;19126;47.472;7.850;2023-07-29T01:22:32;96231.94;;;15.88;20.65
32761;BME280;19126;47.472;7.850;2023-07-29T01:25:02;96236.22;;;15.89;20.01
32761;BME280;19126;47.472;7.850;2023-07-29T01:27:29;96233.34;;;15.91;20.03
32761;BME280;19126;47.472;7.850;2023-07-29T01:29:58;96236.16;;;15.96;19.25
32761;BME280;19126;47.472;7.850;2023-07-29T01:32:30;96238.63;;;15.98;19.12
32761;BME280;19126;47.472;7.850;2023-07-29T01:35:07;96238.38;;;15.99;18.27
32761;BME280;19126;47.472;7.850;2023-07-29T01:37:38;96240.38;;;16.04;18.49
32761;BME280;19126;47.472;7.850;2023-07-29T01:40:09;96233.81;;;16.06;17.78
32761;BME280;19126;47.472;7.850;2023-07-29T01:42:37;96234.41;;;16.08;17.58
32761;BME280;19126;47.472;7.850;2023-07-29T01:45:05;96235.59;;;16.13;17.08
32761;BME280;19126;47.472;7.850;2023-07-29T01:47:33;96250.03;;;16.17;16.99
32761;BME280;19126;47.472;7.850;2023-07-29T01:50:00;96246.75;;;16.21;16.90
32761;BME280;19126;47.472;7.850;2023-07-29T01:52:29;96244.88;;;16.22;16.79
32761;BME280;19126;47.472;7.850;2023-07-29T01:54:56;96235.91;;;16.23;16.64
32761;BME280;19126;47.472;7.850;2023-07-29T01:57:25;96242.03;;;16.23;15.79
32761;BME280;19126;47.472;7.850;2023-07-29T01:59:52;96237.31;;;16.25;16.20
32761;BME280;19126;47.472;7.850;2023-07-29T02:02:20;96239.16;;;16.25;16.32
32761;BME280;19126;47.472;7.850;2023-07-29T02:04:47;96218.53;;;16.27;15.31
32761;BME280;19126;47.472;7.850;2023-07-29T02:07:17;96219.94;;;16.30;15.72
32761;BME280;19126;47.472;7.850;2023-07-29T02:09:45;96215.25;;;16.32;15.83
32761;BME280;19126;47.472;7.850;2023-07-29T02:12:12;96212.00;;;16.30;15.21
32761;BME280;19126;47.472;7.850;2023-07-29T02:14:41;96211.84;;;16.24;15.64
32761;BME280;19126;47.472;7.850;2023-07-29T02:17:08;96205.72;;;16.24;15.58
32761;BME280;19126;47.472;7.850;2023-07-29T02:19:35;96204.09;;;16.23;15.41
32761;BME280;19126;47.472;7.850;2023-07-29T02:22:03;96207.59;;;16.23;16.16
32761;BME280;19126;47.472;7.850;2023-07-29T02:24:30;96210.44;;;16.22;15.20
32761;BME280;19126;47.472;7.850;2023-07-29T02:26:58;96217.59;;;16.21;15.65
32761;BME280;19126;47.472;7.850;2023-07-29T02:29:25;96219.41;;;16.21;15.60
32761;BME280;19126;47.472;7.850;2023-07-29T02:31:54;96217.59;;;16.21;16.07
32761;BME280;19126;47.472;7.850;2023-07-29T02:34:21;96218.19;;;16.23;15.65
32761;BME280;19126;47.472;7.850;2023-07-29T02:36:48;96221.41;;;16.25;15.09
32761;BME280;19126;47.472;7.850;2023-07-29T02:39:15;96215.69;;;16.29;15.75
32761;BME280;19126;47.472;7.850;2023-07-29T02:41:43;96221.34;;;16.32;14.71
32761;BME280;19126;47.472;7.850;2023-07-29T02:44:10;96220.09;;;16.35;14.83
32761;BME280;19126;47.472;7.850;2023-07-29T02:46:37;96223.09;;;16.38;14.39
32761;BME280;19126;47.472;7.850;2023-07-29T02:49:06;96230.84;;;16.40;15.02
32761;BME280;19126;47.472;7.850;2023-07-29T02:51:34;96229.44;;;16.37;14.63
32761;BME280;19126;47.472;7.850;2023-07-29T02:54:01;96227.81;;;16.36;14.05
32761;BME280;19126;47.472;7.850;2023-07-29T02:56:28;96228.06;;;16.35;14.55
32761;BME280;19126;47.472;7.850;2023-07-29T02:58:56;96232.09;;;16.37;14.33
32761;BME280;19126;47.472;7.850;2023-07-29T03:01:24;96229.22;;;16.39;14.40
32761;BME280;19126;47.472;7.850;2023-07-29T03:03:52;96238.81;;;16.40;14.12
32761;BME280;19126;47.472;7.850;2023-07-29T03:06:20;96230.63;;;16.41;14.60
32761;BME280;19126;47.472;7.850;2023-07-29T03:08:48;96234.69;;;16.44;14.48
32761;BME280;19126;47.472;7.850;2023-07-29T03:11:16;96234.69;;;16.44;14.33
32761;BME280;19126;47.472;7.850;2023-07-29T03:13:44;96231.78;;;16.46;14.81
32761;BME280;19126;47.472;7.850;2023-07-29T03:16:13;96238.50;;;16.48;15.13
32761;BME280;19126;47.472;7.850;2023-07-29T03:18:41;96229.53;;;16.49;15.20
32761;BME280;19126;47.472;7.850;2023-07-29T03:21:10;96230.91;;;16.52;14.91
32761;BME280;19126;47.472;7.850;2023-07-29T03:23:39;96232.53;;;16.53;14.86
32761;BME280;19126;47.472;7.850;2023-07-29T03:26:06;96227.03;;;16.54;14.68
32761;BME280;19126;47.472;7.850;2023-07-29T03:28:38;96229.44;;;16.56;15.03
32761;BME280;19126;47.472;7.850;2023-07-29T03:31:06;96216.75;;;16.58;14.71
32761;BME280;19126;47.472;7.850;2023-07-29T03:33:33;96221.84;;;16.60;15.17
32761;BME280;19126;47.472;7.850;2023-07-29T03:36:01;96220.00;;;16.60;15.34
32761;BME280;19126;47.472;7.850;2023-07-29T03:38:28;96210.22;;;16.61;15.18
32761;BME280;19126;47.472;7.850;2023-07-29T03:40:57;96210.72;;;16.69;15.37
32761;BME280;19126;47.472;7.850;2023-07-29T03:43:24;96211.75;;;16.68;15.17
32761;BME280;19126;47.472;7.850;2023-07-29T03:45:52;96206.09;;;16.65;15.56
32761;BME280;19126;47.472;7.850;2023-07-29T03:48:19;96199.97;;;16.64;15.71
32761;BME280;19126;47.472;7.850;2023-07-29T03:50:46;96194.31;;;16.61;15.63
32761;BME280;19126;47.472;7.850;2023-07-29T03:53:13;96200.06;;;16.58;15.64
32761;BME280;19126;47.472;7.850;2023-07-29T03:55:41;96204.53;;;16.57;15.27
32761;BME280;19126;47.472;7.850;2023-07-29T03:58:09;96199.47;;;16.55;15.49
32761;BME280;19126;47.472;7.850;2023-07-29T04:00:37;96198.88;;;16.53;15.02
32761;BME280;19126;47.472;7.850;2023-07-29T04:03:04;96199.31;;;16.50;15.34
32761;BME280;19126;47.472;7.850;2023-07-29T04:05:31;96203.81;;;16.50;15.46
32761;BME280;19126;47.472;7.850;2023-07-29T04:07:59;96201.16;;;16.50;15.19
32761;BME280;19126;47.472;7.850;2023-07-29T04:10:26;96198.94;;;16.47;14.73
32761;BME280;19126;47.472;7.850;2023-07-29T04:12:53;96205.88;;;16.48;15.39
32761;BME280;19126;47.472;7.850;2023-07-29T04:15:22;96199.19;;;16.45;14.67
32761;BME280;19126;47.472;7.850;2023-07-29T04:17:49;96199.19;;;16.45;15.05
32761;BME280;19126;47.472;7.850;2023-07-29T04:20:17;96202.88;;;16.44;15.38
32761;BME280;19126;47.472;7.850;2023-07-29T04:22:44;96212.44;;;16.45;14.98
32761;BME280;19126;47.472;7.850;2023-07-29T04:25:11;96216.72;;;16.46;14.90
32761;BME280;19126;47.472;7.850;2023-07-29T04:27:39;96218.78;;;16.44;15.15
32761;BME280;19126;47.472;7.850;2023-07-29T04:30:07;96224.06;;;16.44;15.27
32761;BME280;19126;47.472;7.850;2023-07-29T04:32:36;96219.56;;;16.45;14.77
32761;BME280;19126;47.472;7.850;2023-07-29T04:35:05;96221.44;;;16.44;14.85
32761;BME280;19126;47.472;7.850;2023-07-29T04:37:32;96230.56;;;16.48;15.13
32761;BME280;19126;47.472;7.850;2023-07-29T04:40:00;96223.41;;;16.49;15.02
32761;BME280;19126;47.472;7.850;2023-07-29T04:42:27;96220.53;;;16.50;15.04
32761;BME280;19126;47.472;7.850;2023-07-29T04:44:54;96220.88;;;16.54;15.33
32761;BME280;19126;47.472;7.850;2023-07-29T04:47:23;96226.19;;;16.54;15.03
32761;BME280;19126;47.472;7.850;2023-07-29T04:49:51;96228.06;;;16.53;14.42
32761;BME280;19126;47.472;7.850;2023-07-29T04:52:19;96236.34;;;16.57;14.90
32761;BME280;19126;47.472;7.850;2023-07-29T04:54:47;96235.56;;;16.57;14.62
32761;BME280;19126;47.472;7.850;2023-07-29T04:57:15;96232.91;;;16.57;14.54
32761;BME280;19126;47.472;7.850;2023-07-29T04:59:42;96238.81;;;16.59;14.48
32761;BME280;19126;47.472;7.850;2023-07-29T05:02:10;96236.63;;;16.67;15.00
32761;BME280;19126;47.472;7.850;2023-07-29T05:04:37;96243.34;;;16.70;14.70
32761;BME280;19126;47.472;7.850;2023-07-29T05:07:06;96241.28;;;16.72;14.99
32761;BME280;19126;47.472;7.850;2023-07-29T05:09:33;96249.59;;;16.76;14.81
32761;BME280;19126;47.472;7.850;2023-07-29T05:12:01;96246.28;;;16.80;14.63
32761;BME280;19126;47.472;7.850;2023-07-29T05:14:28;96248.06;;;16.87;14.51
32761;BME280;19126;47.472;7.850;2023-07-29T05:16:56;96256.75;;;16.94;14.74
32761;BME280;19126;47.472;7.850;2023-07-29T05:19:23;96258.53;;;17.00;14.53
32761;BME280;19126;47.472;7.850;2023-07-29T05:21:50;96244.50;;;17.11;14.39
32761;BME280;19126;47.472;7.850;2023-07-29T05:24:19;96247.63;;;17.20;15.04
32761;BME280;19126;47.472;7.850;2023-07-29T05:26:46;96249.88;;;17.35;15.10
32761;BME280;19126;47.472;7.850;2023-07-29T05:29:13;96249.56;;;17.43;16.35
32761;BME280;19126;47.472;7.850;2023-07-29T05:31:41;96252.44;;;17.42;17.06
32761;BME280;19126;47.472;7.850;2023-07-29T05:34:08;96245.28;;;17.42;18.10
32761;BME280;19126;47.472;7.850;2023-07-29T05:36:35;96246.44;;;17.47;19.19
32761;BME280;19126;47.472;7.850;2023-07-29T05:39:03;96244.28;;;17.55;19.83
32761;BME280;19126;47.472;7.850;2023-07-29T05:41:31;96246.16;;;17.79;20.52
32761;BME280;19126;47.472;7.850;2023-07-29T05:43:59;96246.88;;;17.98;20.91
32761;BME280;19126;47.472;7.850;2023-07-29T05:46:26;96246.69;;;18.11;22.03
32761;BME280;19126;47.472;7.850;2023-07-29T05:48:53;96242.25;;;18.17;25.45
32761;BME280;19126;47.472;7.850;2023-07-29T05:51:20;96243.78;;;18.25;30.84
32761;BME280;19126;47.472;7.850;2023-07-29T05:53:49;96243.75;;;18.37;33.68
32761;BME280;19126;47.472;7.850;2023-07-29T05:56:17;96239.84;;;18.39;36.20
32761;BME280;19126;47.472;7.850;2023-07-29T05:58:45;96245.00;;;18.46;38.70
32761;BME280;19126;47.472;7.850;2023-07-29T06:01:13;96238.75;;;18.52;39.01
32761;BME280;19126;47.472;7.850;2023-07-29T06:03:40;96250.69;;;18.50;41.06
32761;BME280;19126;47.472;7.850;2023-07-29T06:06:08;96245.38;;;18.50;40.28
32761;BME280;19126;47.472;7.850;2023-07-29T06:08:35;96242.47;;;18.51;39.12
32761;BME280;19126;47.472;7.850;2023-07-29T06:11:02;96244.66;;;18.54;37.15
32761;BME280;19126;47.472;7.850;2023-07-29T06:13:32;96241.28;;;18.59;35.75
32761;BME280;19126;47.472;7.850;2023-07-29T06:16:00;96243.50;;;18.62;35.54
32761;BME280;19126;47.472;7.850;2023-07-29T06:18:28;96244.53;;;18.73;34.51
32761;BME280;19126;47.472;7.850;2023-07-29T06:20:55;96245.88;;;18.87;33.27
32761;BME280;19126;47.472;7.850;2023-07-29T06:23:23;96246.13;;;19.15;32.33
32761;BME280;19126;47.472;7.850;2023-07-29T06:25:50;96253.53;;;19.42;35.68
32761;BME280;19126;47.472;7.850;2023-07-29T06:28:17;96258.16;;;19.81;39.54
32761;BME280;19126;47.472;7.850;2023-07-29T06:30:44;96251.22;;;20.14;46.43
32761;BME280;19126;47.472;7.850;2023-07-29T06:33:13;96257.53;;;20.25;58.29
32761;BME280;19126;47.472;7.850;2023-07-29T06:35:41;96260.50;;;20.28;69.86
32761;BME280;19126;47.472;7.850;2023-07-29T06:38:09;96248.00;;;20.29;77.01
32761;BME280;19126;47.472;7.850;2023-07-29T06:40:36;96256.56;;;20.31;81.29
32761;BME280;19126;47.472;7.850;2023-07-29T06:43:03;96249.34;;;20.31;83.33
32761;BME280;19126;47.472;7.850;2023-07-29T06:45:31;96258.97;;;20.32;84.10
32761;BME280;19126;47.472;7.850;2023-07-29T06:47:58;96259.53;;;20.34;84.05
32761;BME280;19126;47.472;7.850;2023-07-29T06:50:27;96259.78;;;20.33;84.78
32761;BME280;19126;47.472;7.850;2023-07-29T06:52:54;96262.19;;;20.34;82.54
32761;BME280;19126;47.472;7.850;2023-07-29T06:55:21;96260.91;;;20.37;83.40
32761;BME280;19126;47.472;7.850;2023-07-29T06:57:48;96262.25;;;20.40;82.65
32761;BME280;19126;47.472;7.850;2023-07-29T07:00:16;96269.25;;;20.63;79.06
32761;BME280;19126;47.472;7.850;2023-07-29T07:02:43;96267.91;;;20.83;87.27
32761;BME280;19126;47.472;7.850;2023-07-29T07:05:10;96268.09;;;20.98;96.18
32761;BME280;19126;47.472;7.850;2023-07-29T07:07:39;96263.38;;;21.05;100.00
32761;BME280;19126;47.472;7.850;2023-07-29T07:10:07;96258.13;;;21.16;100.00
32761;BME280;19126;47.472;7.850;2023-07-29T07:12:35;96270.13;;;21.41;100.00
32761;BME280;19126;47.472;7.850;2023-07-29T07:15:03;96265.59;;;21.69;100.00
32761;BME280;19126;47.472;7.850;2023-07-29T07:17:30;96260.94;;;21.86;100.00
32761;BME280;19126;47.472;7.850;2023-07-29T07:19:57;96266.31;;;21.91;100.00
32761;BME280;19126;47.472;7.850;2023-07-29T07:22:25;96267.38;;;21.90;100.00
32761;BME280;19126;47.472;7.850;2023-07-29T07:24:53;96277.75;;;21.81;100.00
32761;BME280;19126;47.472;7.850;2023-07-29T07:27:21;96268.09;;;21.75;100.00
32761;BME280;19126;47.472;7.850;2023-07-29T07:29:48;96272.41;;;21.81;100.00
32761;BME280;19126;47.472;7.850;2023-07-29T07:32:16;96269.53;;;22.31;100.00
32761;BME280;19126;47.472;7.850;2023-07-29T07:34:43;96268.75;;;22.79;100.00
32761;BME280;19126;47.472;7.850;2023-07-29T07:37:10;96275.66;;;23.28;100.00
32761;BME280;19126;47.472;7.850;2023-07-29T07:39:38;96276.47;;;23.44;100.00
32761;BME280;19126;47.472;7.850;2023-07-29T07:42:07;96280.00;;;23.65;100.00
32761;BME280;19126;47.472;7.850;2023-07-29T07:44:34;96270.59;;;23.73;100.00
32761;BME280;19126;47.472;7.850;2023-07-29T07:47:01;96273.81;;;23.54;100.00
32761;BME280;19126;47.472;7.850;2023-07-29T07:49:29;96265.50;;;23.40;100.00
32761;BME280;19126;47.472;7.850;2023-07-29T07:51:56;96275.69;;;23.49;100.00
32761;BME280;19126;47.472;7.850;2023-07-29T07:54:24;96269.81;;;23.73;100.00
32761;BME280;19126;47.472;7.850;2023-07-29T07:56:51;96272.78;;;23.87;100.00
32761;BME280;19126;47.472;7.850;2023-07-29T07:59:20;96277.88;;;24.09;100.00
32761;BME280;19126;47.472;7.850;2023-07-29T08:01:47;96283.53;;;24.12;100.00
32761;BME280;19126;47.472;7.850;2023-07-29T08:04:14;96285.63;;;24.36;100.00
32761;BME280;19126;47.472;7.850;2023-07-29T08:06:41;96286.09;;;24.69;100.00
32761;BME280;19126;47.472;7.850;2023-07-29T08:09:09;96289.25;;;24.97;100.00
32761;BME280;19126;47.472;7.850;2023-07-29T08:11:36;96281.63;;;25.15;94.38
32761;BME280;19126;47.472;7.850;2023-07-29T08:14:03;96284.19;;;25.41;91.79
32761;BME280;19126;47.472;7.850;2023-07-29T08:16:32;96288.44;;;25.52;93.82
32761;BME280;19126;47.472;7.850;2023-07-29T08:18:59;96276.44;;;25.74;91.22
32761;BME280;19126;47.472;7.850;2023-07-29T08:21:27;96276.84;;;25.92;91.50
32761;BME280;19126;47.472;7.850;2023-07-29T08:23:54;96272.94;;;26.08;95.72
32761;BME280;19126;47.472;7.850;2023-07-29T08:26:21;96268.34;;;26.14;90.20
32761;BME280;19126;47.472;7.850;2023-07-29T08:28:49;96259.47;;;26.08;90.29
32761;BME280;19126;47.472;7.850;2023-07-29T08:31:16;96266.53;;;26.04;84.73
32761;BME280;19126;47.472;7.850;2023-07-29T08:33:45;96270.16;;;25.89;86.48
32761;BME280;19126;47.472;7.850;2023-07-29T08:36:12;96271.38;;;26.02;88.30
32761;BME280;19126;47.472;7.850;2023-07-29T08:38:40;96269.53;;;26.32;89.71
32761;BME280;19126;47.472;7.850;2023-07-29T08:41:14;96269.56;;;26.56;85.86
32761;BME280;19126;47.472;7.850;2023-07-29T08:43:48;96268.00;;;26.50;84.45
32761;BME280;19126;47.472;7.850;2023-07-29T08:46:18;96266.13;;;26.51;83.40
32761;BME280;19126;47.472;7.850;2023-07-29T08:48:47;96260.66;;;26.80;86.66
32761;BME280;19126;47.472;7.850;2023-07-29T08:51:16;96271.97;;;27.06;88.17
32761;BME280;19126;47.472;7.850;2023-07-29T08:53:47;96273.34;;;27.04;82.08
32761;BME280;19126;47.472;7.850;2023-07-29T08:56:15;96266.94;;;27.19;85.21
32761;BME280;19126;47.472;7.850;2023-07-29T08:58:43;96264.28;;;27.57;83.71
32761;BME280;19126;47.472;7.850;2023-07-29T09:01:11;96270.97;;;27.79;78.15
32761;BME280;19126;47.472;7.850;2023-07-29T09:03:38;96269.53;;;28.01;79.89
32761;BME280;19126;47.472;7.850;2023-07-29T09:06:08;96267.72;;;28.29;78.77
32761;BME280;19126;47.472;7.850;2023-07-29T09:08:36;96271.13;;;28.35;75.87
32761;BME280;19126;47.472;7.850;2023-07-29T09:11:04;96264.03;;;28.25;73.25
32761;BME280;19126;47.472;7.850;2023-07-29T09:13:31;96271.72;;;27.99;74.49
32761;BME280;19126;47.472;7.850;2023-07-29T09:15:58;96263.78;;;27.88;77.92
32761;BME280;19126;47.472;7.850;2023-07-29T09:18:27;96258.22;;;27.66;74.48
32761;BME280;19126;47.472;7.850;2023-07-29T09:20:59;96261.75;;;27.80;76.47
32761;BME280;19126;47.472;7.850;2023-07-29T09:23:28;96263.69;;;27.93;78.86
32761;BME280;19126;47.472;7.850;2023-07-29T09:26:07;96268.81;;;28.28;79.43
32761;BME280;19126;47.472;7.850;2023-07-29T09:28:36;96267.34;;;28.50;75.72
32761;BME280;19126;47.472;7.850;2023-07-29T09:31:05;96261.63;;;28.51;74.46
32761;BME280;19126;47.472;7.850;2023-07-29T09:33:35;96263.94;;;29.00;79.61
32761;BME280;19126;47.472;7.850;2023-07-29T09:36:08;96267.34;;;29.06;73.84
32761;BME280;19126;47.472;7.850;2023-07-29T09:38:38;96263.44;;;28.98;73.96
32761;BME280;19126;47.472;7.850;2023-07-29T09:41:05;96260.00;;;29.34;74.26
32761;BME280;19126;47.472;7.850;2023-07-29T09:43:34;96271.13;;;29.70;72.94
32761;BME280;19126;47.472;7.850;2023-07-29T09:46:03;96271.88;;;29.84;67.24
32761;BME280;19126;47.472;7.850;2023-07-29T09:48:33;96263.97;;;30.19;68.80
32761;BME280;19126;47.472;7.850;2023-07-29T09:51:10;96267.75;;;30.73;69.00
32761;BME280;19126;47.472;7.850;2023-07-29T09:53:43;96258.84;;;30.81;65.28
32761;BME280;19126;47.472;7.850;2023-07-29T09:56:12;96252.75;;;30.75;63.25
32761;BME280;19126;47.472;7.850;2023-07-29T09:58:40;96258.03;;;30.40;65.28
32761;BME280;19126;47.472;7.850;2023-07-29T10:01:09;96258.00;;;29.86;65.69
32761;BME280;19126;47.472;7.850;2023-07-29T10:03:37;96257.09;;;29.45;70.54
32761;BME280;19126;47.472;7.850;2023-07-29T10:06:06;96251.41;;;28.76;71.34
32761;BME280;19126;47.472;7.850;2023-07-29T10:08:34;96246.81;;;28.02;73.57
32761;BME280;19126;47.472;7.850;2023-07-29T10:11:06;96243.75;;;27.75;75.85
32761;BME280;19126;47.472;7.850;2023-07-29T10:13:35;96235.00;;;27.45;76.53
32761;BME280;19126;47.472;7.850;2023-07-29T10:16:03;96248.88;;;27.19;78.80
32761;BME280;19126;47.472;7.850;2023-07-29T10:18:32;96248.28;;;27.03;77.23
32761;BME280;19126;47.472;7.850;2023-07-29T10:21:01;96245.28;;;26.86;79.02
32761;BME280;19126;47.472;7.850;2023-07-29T10:23:38;96239.25;;;26.94;80.25
32761;BME280;19126;47.472;7.850;2023-07-29T10:26:11;96243.25;;;26.72;80.74
32761;BME280;19126;47.472;7.850;2023-07-29T10:28:41;96237.88;;;26.72;80.67
32761;BME280;19126;47.472;7.850;2023-07-29T10:31:14;96239.41;;;26.54;82.84
32761;BME280;19126;47.472;7.850;2023-07-29T10:33:42;96237.00;;;26.53;81.88
32761;BME280;19126;47.472;7.850;2023-07-29T10:36:11;96232.03;;;27.09;83.79
32761;BME280;19126;47.472;7.850;2023-07-29T10:38:39;96242.06;;;27.41;79.96
32761;BME280;19126;47.472;7.850;2023-07-29T10:41:07;96233.25;;;27.16;78.56
32761;BME280;19126;47.472;7.850;2023-07-29T10:43:37;96236.91;;;27.26;78.90
32761;BME280;19126;47.472;7.850;2023-07-29T10:46:16;96240.25;;;27.17;80.32
32761;BME280;19126;47.472;7.850;2023-07-29T10:48:53;96239.53;;;27.12;79.44
32761;BME280;19126;47.472;7.850;2023-07-29T10:51:28;96225.69;;;27.18;77.95
32761;BME280;19126;47.472;7.850;2023-07-29T10:53:57;96231.00;;;27.43;79.95
32761;BME280;19126;47.472;7.850;2023-07-29T10:56:28;96241.38;;;27.55;79.55
32761;BME280;19126;47.472;7.850;2023-07-29T10:59:01;96231.06;;;27.76;80.20
32761;BME280;19126;47.472;7.850;2023-07-29T11:01:30;96240.19;;;28.13;74.52
32761;BME280;19126;47.472;7.850;2023-07-29T11:04:23;96233.31;;;28.49;77.75
32761;BME280;19126;47.472;7.850;2023-07-29T11:07:19;96235.06;;;29.23;70.97
32761;BME280;19126;47.472;7.850;2023-07-29T11:10:00;96228.09;;;29.45;68.17
32761;BME280;19126;47.472;7.850;2023-07-29T11:12:52;96228.41;;;28.93;71.07
32761;BME280;19126;47.472;7.850;2023-07-29T11:15:25;96225.59;;;28.42;71.50
32761;BME280;19126;47.472;7.850;2023-07-29T11:17:54;96216.25;;;28.06;75.55
32761;BME280;19126;47.472;7.850;2023-07-29T11:20:24;96213.78;;;27.77;77.11
32761;BME280;19126;47.472;7.850;2023-07-29T11:22:53;96200.31;;;27.58;74.80
32761;BME280;19126;47.472;7.850;2023-07-29T11:25:22;96201.63;;;27.41;78.25
32761;BME280;19126;47.472;7.850;2023-07-29T11:27:53;96194.72;;;27.16;78.66
32761;BME280;19126;47.472;7.850;2023-07-29T11:30:20;96187.78;;;26.90;80.41
32761;BME280;19126;47.472;7.850;2023-07-29T11:32:50;96189.94;;;26.69;81.08
32761;BME280;19126;47.472;7.850;2023-07-29T11:35:18;96187.53;;;26.43;84.38
32761;BME280;19126;47.472;7.850;2023-07-29T11:37:49;96186.09;;;26.27;90.25
32761;BME280;19126;47.472;7.850;2023-07-29T11:40:18;96192.19;;;26.08;97.17
32761;BME280;19126;47.472;7.850;2023-07-29T11:42:46;96199.34;;;25.94;100.00
32761;BME280;19126;47.472;7.850;2023-07-29T11:45:16;96203.25;;;25.77;100.00
32761;BME280;19126;47.472;7.850;2023-07-29T11:47:44;96204.94;;;25.68;100.00
32761;BME280;19126;47.472;7.850;2023-07-29T11:50:14;96200.94;;;25.65;100.00
32761;BME280;19126;47.472;7.850;2023-07-29T11:52:43;96205.28;;;25.61;98.92
32761;BME280;19126;47.472;7.850;2023-07-29T11:55:13;96209.13;;;25.50;100.00
32761;BME280;19126;47.472;7.850;2023-07-29T11:57:42;96206.75;;;25.38;98.06
32761;BME280;19126;47.472;7.850;2023-07-29T12:00:11;96222.72;;;25.24;97.22
32761;BME280;19126;47.472;7.850;2023-07-29T12:02:42;96224.97;;;25.06;97.42
32761;BME280;19126;47.472;7.850;2023-07-29T12:05:13;96241.97;;;24.91;100.00
32761;BME280;19126;47.472;7.850;2023-07-29T12:07:43;96259.22;;;24.69;100.00
32761;BME280;19126;47.472;7.850;2023-07-29T12:10:11;96255.34;;;24.05;100.00
32761;BME280;19126;47.472;7.850;2023-07-29T12:12:45;96260.94;;;23.62;94.94
32761;BME280;19126;47.472;7.850;2023-07-29T12:15:13;96263.03;;;23.23;99.97
32761;BME280;19126;47.472;7.850;2023-07-29T12:17:41;96263.66;;;22.77;100.00
32761;BME280;19126;47.472;7.850;2023-07-29T12:20:10;96256.84;;;22.54;99.54
32761;BME280;19126;47.472;7.850;2023-07-29T12:22:39;96267.34;;;22.23;100.00
32761;BME280;19126;47.472;7.850;2023-07-29T12:25:07;96263.47;;;22.03;100.00
32761;BME280;19126;47.472;7.850;2023-07-29T12:27:35;96268.75;;;21.93;100.00
32761;BME280;19126;47.472;7.850;2023-07-29T12:30:03;96285.50;;;21.83;100.00
32761;BME280;19126;47.472;7.850;2023-07-29T12:32:31;96291.84;;;21.72;100.00
32761;BME280;19126;47.472;7.850;2023-07-29T12:34:58;96287.75;;;21.64;100.00
32761;BME280;19126;47.472;7.850;2023-07-29T12:37:31;96286.66;;;21.37;100.00
32761;BME280;19126;47.472;7.850;2023-07-29T12:40:01;96282.88;;;21.33;100.00
32761;BME280;19126;47.472;7.850;2023-07-29T12:42:29;96302.59;;;21.27;100.00
32761;BME280;19126;47.472;7.850;2023-07-29T12:44:57;96325.28;;;21.25;100.00
32761;BME280;19126;47.472;7.850;2023-07-29T12:47:24;96343.09;;;21.19;100.00
32761;BME280;19126;47.472;7.850;2023-07-29T12:49:51;96329.44;;;21.15;100.00
32761;BME280;19126;47.472;7.850;2023-07-29T12:52:19;96327.56;;;21.16;100.00
32761;BME280;19126;47.472;7.850;2023-07-29T12:54:46;96329.44;;;21.15;100.00
32761;BME280;19126;47.472;7.850;2023-07-29T12:57:15;96336.31;;;21.11;100.00
32761;BME280;19126;47.472;7.850;2023-07-29T12:59:42;96329.63;;;21.08;98.18
32761;BME280;19126;47.472;7.850;2023-07-29T13:02:09;96325.69;;;21.16;99.00
32761;BME280;19126;47.472;7.850;2023-07-29T13:04:37;96339.88;;;21.17;94.08